sensor_id;sensor_type;location;lat;lon;timestamp;P1;durP1;ratioP1;P2;durP2;ratioP2
76846;SDS011;65813;49.546;8.644;2023-09-12T00:00:45;8.20;;;4.47;;
76846;SDS011;65813;49.546;8.644;2023-09-12T00:04:45;11.07;;;4.05;;
76846;SDS011;65813;49.546;8.644;2023-09-12T00:08:46;11.53;;;4.43;;
76846;SDS011;65813;49.546;8.644;2023-09-12T00:12:46;10.03;;;4.53;;
76846;SDS011;65813;49.546;8.644;2023-09-12T00:16:46;8.73;;;4.30;;
76846;SDS011;65813;49.546;8.644;2023-09-12T00:20:47;11.17;;;4.37;;
76846;SDS011;65813;49.546;8.644;2023-09-12T00:24:47;9.67;;;4.20;;
76846;SDS011;65813;49.546;8.644;2023-09-12T00:28:47;10.20;;;4.55;;
76846;SDS011;65813;49.546;8.644;2023-09-12T00:32:48;12.53;;;5.37;;
76846;SDS011;65813;49.546;8.644;2023-09-12T00:36:48;10.47;;;4.37;;
76846;SDS011;65813;49.546;8.644;2023-09-12T00:40:48;12.93;;;5.33;;
76846;SDS011;65813;49.546;8.644;2023-09-12T00:44:48;9.47;;;5.33;;
76846;SDS011;65813;49.546;8.644;2023-09-12T00:48:49;10.10;;;4.53;;
76846;SDS011;65813;49.546;8.644;2023-09-12T00:52:52;12.68;;;5.05;;
76846;SDS011;65813;49.546;8.644;2023-09-12T00:56:54;11.63;;;5.30;;
76846;SDS011;65813;49.546;8.644;2023-09-12T01:00:55;12.43;;;5.17;;
76846;SDS011;65813;49.546;8.644;2023-09-12T01:04:56;16.58;;;5.15;;
76846;SDS011;65813;49.546;8.644;2023-09-12T01:08:56;10.63;;;4.80;;
76846;SDS011;65813;49.546;8.644;2023-09-12T01:12:57;12.75;;;5.47;;
76846;SDS011;65813;49.546;8.644;2023-09-12T01:16:58;9.10;;;4.88;;
76846;SDS011;65813;49.546;8.644;2023-09-12T01:25:55;11.70;;;5.00;;
76846;SDS011;65813;49.546;8.644;2023-09-12T01:30:01;9.65;;;4.60;;
76846;SDS011;65813;49.546;8.644;2023-09-12T01:34:09;9.80;;;4.97;;
76846;SDS011;65813;49.546;8.644;2023-09-12T01:38:10;14.02;;;5.40;;
76846;SDS011;65813;49.546;8.644;2023-09-12T01:42:11;15.80;;;6.07;;
76846;SDS011;65813;49.546;8.644;2023-09-12T01:46:14;8.75;;;5.50;;
76846;SDS011;65813;49.546;8.644;2023-09-12T01:50:16;11.00;;;5.70;;
76846;SDS011;65813;49.546;8.644;2023-09-12T01:54:18;9.85;;;5.05;;
76846;SDS011;65813;49.546;8.644;2023-09-12T01:58:20;10.85;;;5.32;;
76846;SDS011;65813;49.546;8.644;2023-09-12T02:02:21;9.15;;;4.47;;
76846;SDS011;65813;49.546;8.644;2023-09-12T02:06:21;9.73;;;4.77;;
76846;SDS011;65813;49.546;8.644;2023-09-12T02:10:22;7.95;;;4.07;;
76846;SDS011;65813;49.546;8.644;2023-09-12T02:14:22;9.30;;;4.22;;
76846;SDS011;65813;49.546;8.644;2023-09-12T02:18:22;9.37;;;4.20;;
76846;SDS011;65813;49.546;8.644;2023-09-12T02:22:22;9.63;;;4.07;;
76846;SDS011;65813;49.546;8.644;2023-09-12T02:26:23;10.52;;;3.95;;
76846;SDS011;65813;49.546;8.644;2023-09-12T02:30:23;10.07;;;4.27;;
76846;SDS011;65813;49.546;8.644;2023-09-12T02:34:24;12.00;;;4.43;;
76846;SDS011;65813;49.546;8.644;2023-09-12T02:38:24;14.93;;;4.35;;
76846;SDS011;65813;49.546;8.644;2023-09-12T02:42:24;7.87;;;3.77;;
76846;SDS011;65813;49.546;8.644;2023-09-12T02:46:25;8.27;;;4.55;;
76846;SDS011;65813;49.546;8.644;2023-09-12T02:50:25;9.33;;;4.17;;
76846;SDS011;65813;49.546;8.644;2023-09-12T02:54:25;10.10;;;4.10;;
76846;SDS011;65813;49.546;8.644;2023-09-12T02:58:26;8.97;;;4.53;;
76846;SDS011;65813;49.546;8.644;2023-09-12T03:02:26;9.03;;;3.90;;
76846;SDS011;65813;49.546;8.644;2023-09-12T03:06:29;10.48;;;5.07;;
76846;SDS011;65813;49.546;8.644;2023-09-12T03:10:30;10.52;;;4.53;;
76846;SDS011;65813;49.546;8.644;2023-09-12T03:14:30;9.43;;;4.53;;
76846;SDS011;65813;49.546;8.644;2023-09-12T03:18:30;9.63;;;4.33;;
76846;SDS011;65813;49.546;8.644;2023-09-12T03:22:31;9.07;;;4.20;;
76846;SDS011;65813;49.546;8.644;2023-09-12T03:26:33;9.25;;;4.35;;
76846;SDS011;65813;49.546;8.644;2023-09-12T03:30:34;8.40;;;4.18;;
76846;SDS011;65813;49.546;8.644;2023-09-12T03:34:36;9.85;;;4.43;;
76846;SDS011;65813;49.546;8.644;2023-09-12T03:38:36;11.07;;;4.60;;
76846;SDS011;65813;49.546;8.644;2023-09-12T03:42:37;8.97;;;4.43;;
76846;SDS011;65813;49.546;8.644;2023-09-12T03:46:37;8.57;;;4.60;;
76846;SDS011;65813;49.546;8.644;2023-09-12T03:50:37;12.67;;;4.70;;
76846;SDS011;65813;49.546;8.644;2023-09-12T03:54:38;11.37;;;4.77;;
76846;SDS011;65813;49.546;8.644;2023-09-12T03:58:38;10.83;;;5.27;;
76846;SDS011;65813;49.546;8.644;2023-09-12T04:02:39;10.25;;;4.97;;
76846;SDS011;65813;49.546;8.644;2023-09-12T04:06:40;7.77;;;4.90;;
76846;SDS011;65813;49.546;8.644;2023-09-12T04:10:40;11.73;;;4.78;;
76846;SDS011;65813;49.546;8.644;2023-09-12T04:14:41;13.05;;;5.28;;
76846;SDS011;65813;49.546;8.644;2023-09-12T04:18:41;8.97;;;4.80;;
76846;SDS011;65813;49.546;8.644;2023-09-12T04:22:42;11.57;;;5.50;;
76846;SDS011;65813;49.546;8.644;2023-09-12T04:26:43;11.50;;;5.22;;
76846;SDS011;65813;49.546;8.644;2023-09-12T04:30:44;10.63;;;5.68;;
76846;SDS011;65813;49.546;8.644;2023-09-12T04:34:44;10.40;;;5.15;;
76846;SDS011;65813;49.546;8.644;2023-09-12T04:38:45;10.47;;;5.90;;
76846;SDS011;65813;49.546;8.644;2023-09-12T04:42:45;12.47;;;6.00;;
76846;SDS011;65813;49.546;8.644;2023-09-12T04:46:45;13.05;;;5.90;;
76846;SDS011;65813;49.546;8.644;2023-09-12T04:50:46;10.98;;;6.40;;
76846;SDS011;65813;49.546;8.644;2023-09-12T04:54:46;12.20;;;5.83;;
76846;SDS011;65813;49.546;8.644;2023-09-12T04:58:47;10.97;;;5.33;;
76846;SDS011;65813;49.546;8.644;2023-09-12T05:02:48;13.45;;;6.40;;
76846;SDS011;65813;49.546;8.644;2023-09-12T05:06:48;13.53;;;5.43;;
76846;SDS011;65813;49.546;8.644;2023-09-12T05:10:48;11.60;;;5.88;;
76846;SDS011;65813;49.546;8.644;2023-09-12T05:14:49;10.93;;;6.57;;
76846;SDS011;65813;49.546;8.644;2023-09-12T05:18:50;15.40;;;6.50;;
76846;SDS011;65813;49.546;8.644;2023-09-12T05:22:50;15.13;;;6.80;;
76846;SDS011;65813;49.546;8.644;2023-09-12T05:26:51;12.37;;;6.07;;
76846;SDS011;65813;49.546;8.644;2023-09-12T05:30:52;14.17;;;6.87;;
76846;SDS011;65813;49.546;8.644;2023-09-12T05:34:52;13.63;;;6.53;;
76846;SDS011;65813;49.546;8.644;2023-09-12T05:38:53;12.47;;;6.33;;
76846;SDS011;65813;49.546;8.644;2023-09-12T05:42:53;15.30;;;6.40;;
76846;SDS011;65813;49.546;8.644;2023-09-12T05:46:53;10.67;;;5.20;;
76846;SDS011;65813;49.546;8.644;2023-09-12T05:50:54;13.10;;;6.17;;
76846;SDS011;65813;49.546;8.644;2023-09-12T05:54:54;12.60;;;6.83;;
76846;SDS011;65813;49.546;8.644;2023-09-12T05:58:54;16.42;;;6.60;;
76846;SDS011;65813;49.546;8.644;2023-09-12T06:02:55;14.33;;;7.60;;
76846;SDS011;65813;49.546;8.644;2023-09-12T06:06:55;17.13;;;7.70;;
76846;SDS011;65813;49.546;8.644;2023-09-12T06:10:55;14.50;;;8.03;;
76846;SDS011;65813;49.546;8.644;2023-09-12T06:14:56;15.65;;;8.48;;
76846;SDS011;65813;49.546;8.644;2023-09-12T06:18:56;15.13;;;8.20;;
76846;SDS011;65813;49.546;8.644;2023-09-12T06:22:57;14.17;;;7.60;;
76846;SDS011;65813;49.546;8.644;2023-09-12T06:26:58;14.75;;;7.60;;
76846;SDS011;65813;49.546;8.644;2023-09-12T06:30:59;18.57;;;8.63;;
76846;SDS011;65813;49.546;8.644;2023-09-12T06:34:59;16.08;;;8.18;;
76846;SDS011;65813;49.546;8.644;2023-09-12T06:38:59;14.93;;;8.13;;
76846;SDS011;65813;49.546;8.644;2023-09-12T06:43:00;14.40;;;7.80;;
76846;SDS011;65813;49.546;8.644;2023-09-12T06:47:03;17.53;;;7.70;;
76846;SDS011;65813;49.546;8.644;2023-09-12T06:51:04;10.90;;;6.82;;
76846;SDS011;65813;49.546;8.644;2023-09-12T06:55:05;14.82;;;7.63;;
76846;SDS011;65813;49.546;8.644;2023-09-12T06:59:07;15.15;;;7.60;;
76846;SDS011;65813;49.546;8.644;2023-09-12T07:03:07;14.10;;;7.83;;
76846;SDS011;65813;49.546;8.644;2023-09-12T07:07:07;17.20;;;7.23;;
76846;SDS011;65813;49.546;8.644;2023-09-12T07:11:08;18.23;;;8.00;;
76846;SDS011;65813;49.546;8.644;2023-09-12T07:15:08;18.37;;;9.30;;
76846;SDS011;65813;49.546;8.644;2023-09-12T07:19:09;19.38;;;9.25;;
76846;SDS011;65813;49.546;8.644;2023-09-12T07:23:10;20.33;;;9.30;;
76846;SDS011;65813;49.546;8.644;2023-09-12T07:27:10;17.60;;;9.87;;
76846;SDS011;65813;49.546;8.644;2023-09-12T07:31:10;21.83;;;10.80;;
76846;SDS011;65813;49.546;8.644;2023-09-12T07:35:11;22.63;;;11.63;;
76846;SDS011;65813;49.546;8.644;2023-09-12T07:39:11;19.50;;;10.70;;
76846;SDS011;65813;49.546;8.644;2023-09-12T07:43:12;22.23;;;12.37;;
76846;SDS011;65813;49.546;8.644;2023-09-12T07:47:12;21.95;;;13.02;;
76846;SDS011;65813;49.546;8.644;2023-09-12T07:51:13;20.30;;;12.55;;
76846;SDS011;65813;49.546;8.644;2023-09-12T07:55:14;22.73;;;13.45;;
76846;SDS011;65813;49.546;8.644;2023-09-12T07:59:15;24.20;;;13.53;;
76846;SDS011;65813;49.546;8.644;2023-09-12T08:03:15;21.90;;;12.53;;
76846;SDS011;65813;49.546;8.644;2023-09-12T08:07:16;24.83;;;13.20;;
76846;SDS011;65813;49.546;8.644;2023-09-12T08:11:16;21.23;;;13.25;;
76846;SDS011;65813;49.546;8.644;2023-09-12T08:15:17;24.67;;;11.73;;
76846;SDS011;65813;49.546;8.644;2023-09-12T08:19:17;20.52;;;11.48;;
76846;SDS011;65813;49.546;8.644;2023-09-12T08:23:18;21.30;;;10.90;;
76846;SDS011;65813;49.546;8.644;2023-09-12T08:27:18;17.70;;;8.87;;
76846;SDS011;65813;49.546;8.644;2023-09-12T08:31:18;14.67;;;9.07;;
76846;SDS011;65813;49.546;8.644;2023-09-12T08:35:19;18.50;;;8.57;;
76846;SDS011;65813;49.546;8.644;2023-09-12T08:39:26;11.98;;;8.45;;
76846;SDS011;65813;49.546;8.644;2023-09-12T08:43:27;21.17;;;9.45;;
76846;SDS011;65813;49.546;8.644;2023-09-12T08:47:28;16.75;;;8.32;;
76846;SDS011;65813;49.546;8.644;2023-09-12T08:51:30;12.65;;;7.97;;
76846;SDS011;65813;49.546;8.644;2023-09-12T08:55:32;11.52;;;7.03;;
76846;SDS011;65813;49.546;8.644;2023-09-12T08:59:35;16.02;;;8.20;;
76846;SDS011;65813;49.546;8.644;2023-09-12T09:03:37;14.85;;;7.45;;
76846;SDS011;65813;49.546;8.644;2023-09-12T09:07:39;14.02;;;7.32;;
76846;SDS011;65813;49.546;8.644;2023-09-12T09:11:40;13.20;;;8.43;;
76846;SDS011;65813;49.546;8.644;2023-09-12T09:15:40;12.07;;;7.70;;
76846;SDS011;65813;49.546;8.644;2023-09-12T09:19:42;16.42;;;7.32;;
76846;SDS011;65813;49.546;8.644;2023-09-12T09:23:47;12.95;;;7.50;;
76846;SDS011;65813;49.546;8.644;2023-09-12T09:27:47;11.18;;;7.32;;
76846;SDS011;65813;49.546;8.644;2023-09-12T09:31:48;13.20;;;7.43;;
76846;SDS011;65813;49.546;8.644;2023-09-12T09:35:50;12.63;;;7.95;;
76846;SDS011;65813;49.546;8.644;2023-09-12T09:40:01;10.30;;;7.30;;
76846;SDS011;65813;49.546;8.644;2023-09-12T09:44:09;14.35;;;7.75;;
76846;SDS011;65813;49.546;8.644;2023-09-12T09:48:09;11.65;;;7.13;;
76846;SDS011;65813;49.546;8.644;2023-09-12T09:52:09;11.30;;;7.47;;
76846;SDS011;65813;49.546;8.644;2023-09-12T09:56:10;13.20;;;7.33;;
76846;SDS011;65813;49.546;8.644;2023-09-12T10:00:12;11.27;;;7.63;;
76846;SDS011;65813;49.546;8.644;2023-09-12T10:04:15;13.48;;;6.50;;
76846;SDS011;65813;49.546;8.644;2023-09-12T10:08:15;12.98;;;6.88;;
76846;SDS011;65813;49.546;8.644;2023-09-12T10:12:17;12.32;;;7.47;;
76846;SDS011;65813;49.546;8.644;2023-09-12T10:16:17;12.43;;;7.13;;
76846;SDS011;65813;49.546;8.644;2023-09-12T10:20:24;12.55;;;6.72;;
76846;SDS011;65813;49.546;8.644;2023-09-12T10:24:29;10.43;;;6.85;;
76846;SDS011;65813;49.546;8.644;2023-09-12T10:28:30;13.95;;;7.35;;
76846;SDS011;65813;49.546;8.644;2023-09-12T10:32:31;11.73;;;7.03;;
76846;SDS011;65813;49.546;8.644;2023-09-12T10:36:32;14.02;;;7.38;;
76846;SDS011;65813;49.546;8.644;2023-09-12T10:40:36;12.60;;;7.35;;
76846;SDS011;65813;49.546;8.644;2023-09-12T10:44:38;14.43;;;6.78;;
76846;SDS011;65813;49.546;8.644;2023-09-12T10:48:39;12.80;;;6.95;;
76846;SDS011;65813;49.546;8.644;2023-09-12T10:52:42;10.32;;;6.70;;
76846;SDS011;65813;49.546;8.644;2023-09-12T10:56:43;10.87;;;7.17;;
76846;SDS011;65813;49.546;8.644;2023-09-12T11:01:35;11.77;;;7.68;;
76846;SDS011;65813;49.546;8.644;2023-09-12T11:09:29;12.77;;;6.85;;
76846;SDS011;65813;49.546;8.644;2023-09-12T11:13:33;13.25;;;6.88;;
76846;SDS011;65813;49.546;8.644;2023-09-12T11:17:43;9.52;;;7.35;;
76846;SDS011;65813;49.546;8.644;2023-09-12T11:21:45;12.30;;;7.03;;
76846;SDS011;65813;49.546;8.644;2023-09-12T11:25:46;13.52;;;7.18;;
76846;SDS011;65813;49.546;8.644;2023-09-12T11:29:48;10.38;;;7.55;;
76846;SDS011;65813;49.546;8.644;2023-09-12T11:33:49;11.82;;;7.32;;
76846;SDS011;65813;49.546;8.644;2023-09-12T11:37:50;12.13;;;7.13;;
76846;SDS011;65813;49.546;8.644;2023-09-12T11:41:52;11.43;;;7.28;;
76846;SDS011;65813;49.546;8.644;2023-09-12T11:45:54;12.40;;;7.75;;
76846;SDS011;65813;49.546;8.644;2023-09-12T11:49:55;11.60;;;7.80;;
76846;SDS011;65813;49.546;8.644;2023-09-12T11:53:55;12.20;;;7.40;;
76846;SDS011;65813;49.546;8.644;2023-09-12T11:57:59;13.70;;;7.03;;
76846;SDS011;65813;49.546;8.644;2023-09-12T12:02:00;11.83;;;7.37;;
76846;SDS011;65813;49.546;8.644;2023-09-12T12:06:00;10.98;;;7.03;;
76846;SDS011;65813;49.546;8.644;2023-09-12T12:10:00;11.53;;;7.30;;
76846;SDS011;65813;49.546;8.644;2023-09-12T12:14:14;11.85;;;7.07;;
76846;SDS011;65813;49.546;8.644;2023-09-12T12:18:17;12.80;;;7.65;;
76846;SDS011;65813;49.546;8.644;2023-09-12T12:22:17;10.87;;;7.40;;
76846;SDS011;65813;49.546;8.644;2023-09-12T12:26:18;10.85;;;6.65;;
76846;SDS011;65813;49.546;8.644;2023-09-12T12:30:19;11.10;;;7.80;;
76846;SDS011;65813;49.546;8.644;2023-09-12T12:34:21;11.00;;;6.90;;
76846;SDS011;65813;49.546;8.644;2023-09-12T12:38:22;10.73;;;7.50;;
76846;SDS011;65813;49.546;8.644;2023-09-12T12:42:22;11.73;;;7.00;;
76846;SDS011;65813;49.546;8.644;2023-09-12T12:46:24;11.25;;;6.85;;
76846;SDS011;65813;49.546;8.644;2023-09-12T12:50:25;10.63;;;5.88;;
76846;SDS011;65813;49.546;8.644;2023-09-12T12:54:25;9.82;;;6.40;;
76846;SDS011;65813;49.546;8.644;2023-09-12T12:58:26;11.67;;;6.83;;
76846;SDS011;65813;49.546;8.644;2023-09-12T13:02:26;8.47;;;6.13;;
76846;SDS011;65813;49.546;8.644;2023-09-12T13:06:26;9.73;;;6.23;;
76846;SDS011;65813;49.546;8.644;2023-09-12T13:10:28;10.55;;;6.50;;
76846;SDS011;65813;49.546;8.644;2023-09-12T13:14:28;9.27;;;6.20;;
76846;SDS011;65813;49.546;8.644;2023-09-12T13:18:31;10.70;;;6.88;;
76846;SDS011;65813;49.546;8.644;2023-09-12T13:22:32;12.77;;;7.57;;
76846;SDS011;65813;49.546;8.644;2023-09-12T13:26:33;11.53;;;6.93;;
76846;SDS011;65813;49.546;8.644;2023-09-12T13:30:33;9.63;;;7.10;;
76846;SDS011;65813;49.546;8.644;2023-09-12T13:34:33;10.87;;;6.57;;
76846;SDS011;65813;49.546;8.644;2023-09-12T13:38:34;11.37;;;6.73;;
76846;SDS011;65813;49.546;8.644;2023-09-12T13:42:34;10.97;;;6.90;;
76846;SDS011;65813;49.546;8.644;2023-09-12T13:46:34;9.17;;;6.77;;
76846;SDS011;65813;49.546;8.644;2023-09-12T13:50:35;10.90;;;6.88;;
76846;SDS011;65813;49.546;8.644;2023-09-12T13:54:35;7.82;;;6.68;;
76846;SDS011;65813;49.546;8.644;2023-09-12T13:58:35;9.93;;;7.00;;
76846;SDS011;65813;49.546;8.644;2023-09-12T14:02:36;7.97;;;6.73;;
76846;SDS011;65813;49.546;8.644;2023-09-12T14:06:36;10.97;;;6.77;;
76846;SDS011;65813;49.546;8.644;2023-09-12T14:10:36;13.13;;;7.00;;
76846;SDS011;65813;49.546;8.644;2023-09-12T14:14:37;11.52;;;6.20;;
76846;SDS011;65813;49.546;8.644;2023-09-12T14:18:37;8.07;;;6.20;;
76846;SDS011;65813;49.546;8.644;2023-09-12T14:22:37;8.47;;;6.53;;
76846;SDS011;65813;49.546;8.644;2023-09-12T14:26:38;9.37;;;6.23;;
76846;SDS011;65813;49.546;8.644;2023-09-12T14:30:50;10.67;;;6.30;;
76846;SDS011;65813;49.546;8.644;2023-09-12T14:34:56;11.00;;;6.50;;
76846;SDS011;65813;49.546;8.644;2023-09-12T14:38:57;9.57;;;6.53;;
76846;SDS011;65813;49.546;8.644;2023-09-12T14:42:57;8.63;;;6.17;;
76846;SDS011;65813;49.546;8.644;2023-09-12T14:46:58;9.73;;;6.67;;
76846;SDS011;65813;49.546;8.644;2023-09-12T14:50:59;8.85;;;5.72;;
76846;SDS011;65813;49.546;8.644;2023-09-12T14:55:01;8.18;;;5.93;;
76846;SDS011;65813;49.546;8.644;2023-09-12T14:59:03;7.88;;;6.18;;
76846;SDS011;65813;49.546;8.644;2023-09-12T15:03:04;9.98;;;6.05;;
76846;SDS011;65813;49.546;8.644;2023-09-12T15:07:05;8.50;;;5.73;;
76846;SDS011;65813;49.546;8.644;2023-09-12T15:11:05;9.07;;;6.30;;
76846;SDS011;65813;49.546;8.644;2023-09-12T15:15:05;8.17;;;6.40;;
76846;SDS011;65813;49.546;8.644;2023-09-12T15:19:06;8.98;;;5.68;;
76846;SDS011;65813;49.546;8.644;2023-09-12T15:23:06;10.03;;;6.53;;
76846;SDS011;65813;49.546;8.644;2023-09-12T15:27:07;9.40;;;6.00;;
76846;SDS011;65813;49.546;8.644;2023-09-12T15:31:07;11.07;;;6.45;;
76846;SDS011;65813;49.546;8.644;2023-09-12T15:35:08;8.83;;;6.20;;
76846;SDS011;65813;49.546;8.644;2023-09-12T15:39:10;7.75;;;5.90;;
76846;SDS011;65813;49.546;8.644;2023-09-12T15:43:11;8.95;;;6.13;;
76846;SDS011;65813;49.546;8.644;2023-09-12T15:47:11;9.00;;;5.73;;
76846;SDS011;65813;49.546;8.644;2023-09-12T15:51:12;11.23;;;6.20;;
76846;SDS011;65813;49.546;8.644;2023-09-12T15:55:13;11.68;;;6.13;;
76846;SDS011;65813;49.546;8.644;2023-09-12T15:59:13;8.43;;;5.67;;
76846;SDS011;65813;49.546;8.644;2023-09-12T16:03:14;9.27;;;5.53;;
76846;SDS011;65813;49.546;8.644;2023-09-12T16:07:14;9.85;;;5.63;;
76846;SDS011;65813;49.546;8.644;2023-09-12T16:11:14;10.67;;;5.93;;
76846;SDS011;65813;49.546;8.644;2023-09-12T16:15:15;6.88;;;5.78;;
76846;SDS011;65813;49.546;8.644;2023-09-12T16:19:15;10.93;;;6.13;;
76846;SDS011;65813;49.546;8.644;2023-09-12T16:23:16;7.67;;;5.80;;
76846;SDS011;65813;49.546;8.644;2023-09-12T16:27:16;11.20;;;6.00;;
76846;SDS011;65813;49.546;8.644;2023-09-12T16:31:22;9.63;;;6.25;;
76846;SDS011;65813;49.546;8.644;2023-09-12T16:35:22;8.83;;;6.10;;
76846;SDS011;65813;49.546;8.644;2023-09-12T16:39:25;7.70;;;5.95;;
76846;SDS011;65813;49.546;8.644;2023-09-12T16:43:25;9.00;;;6.33;;
76846;SDS011;65813;49.546;8.644;2023-09-12T16:47:26;9.80;;;6.15;;
76846;SDS011;65813;49.546;8.644;2023-09-12T16:51:30;9.25;;;6.40;;
76846;SDS011;65813;49.546;8.644;2023-09-12T16:59:30;9.23;;;5.97;;
76846;SDS011;65813;49.546;8.644;2023-09-12T17:03:31;9.73;;;6.13;;
76846;SDS011;65813;49.546;8.644;2023-09-12T17:07:31;11.67;;;5.97;;
76846;SDS011;65813;49.546;8.644;2023-09-12T17:11:32;9.45;;;6.07;;
76846;SDS011;65813;49.546;8.644;2023-09-12T17:15:32;8.67;;;5.80;;
76846;SDS011;65813;49.546;8.644;2023-09-12T17:19:36;9.90;;;6.40;;
76846;SDS011;65813;49.546;8.644;2023-09-12T17:23:37;8.30;;;5.87;;
76846;SDS011;65813;49.546;8.644;2023-09-12T17:27:37;11.27;;;6.60;;
76846;SDS011;65813;49.546;8.644;2023-09-12T17:31:37;12.93;;;6.00;;
76846;SDS011;65813;49.546;8.644;2023-09-12T17:35:38;10.00;;;6.00;;
76846;SDS011;65813;49.546;8.644;2023-09-12T17:39:38;11.37;;;6.40;;
76846;SDS011;65813;49.546;8.644;2023-09-12T17:43:39;12.70;;;6.83;;
76846;SDS011;65813;49.546;8.644;2023-09-12T17:47:39;11.60;;;6.38;;
76846;SDS011;65813;49.546;8.644;2023-09-12T17:51:39;13.17;;;7.53;;
76846;SDS011;65813;49.546;8.644;2023-09-12T17:55:40;7.90;;;6.10;;
76846;SDS011;65813;49.546;8.644;2023-09-12T17:59:40;11.17;;;6.90;;
76846;SDS011;65813;49.546;8.644;2023-09-12T18:03:41;9.43;;;6.53;;
76846;SDS011;65813;49.546;8.644;2023-09-12T18:07:41;8.77;;;6.55;;
76846;SDS011;65813;49.546;8.644;2023-09-12T18:11:42;10.10;;;7.35;;
76846;SDS011;65813;49.546;8.644;2023-09-12T18:15:42;9.30;;;6.17;;
76846;SDS011;65813;49.546;8.644;2023-09-12T18:19:42;9.23;;;6.37;;
76846;SDS011;65813;49.546;8.644;2023-09-12T18:23:43;12.20;;;7.20;;
76846;SDS011;65813;49.546;8.644;2023-09-12T18:27:44;9.15;;;6.55;;
76846;SDS011;65813;49.546;8.644;2023-09-12T18:31:44;10.13;;;7.07;;
76846;SDS011;65813;49.546;8.644;2023-09-12T18:35:44;10.37;;;6.63;;
76846;SDS011;65813;49.546;8.644;2023-09-12T18:39:45;10.50;;;7.27;;
76846;SDS011;65813;49.546;8.644;2023-09-12T18:43:45;9.03;;;6.57;;
76846;SDS011;65813;49.546;8.644;2023-09-12T18:47:45;9.43;;;6.73;;
76846;SDS011;65813;49.546;8.644;2023-09-12T18:51:46;9.20;;;6.50;;
76846;SDS011;65813;49.546;8.644;2023-09-12T18:55:46;10.23;;;7.15;;
76846;SDS011;65813;49.546;8.644;2023-09-12T18:59:47;10.43;;;7.53;;
76846;SDS011;65813;49.546;8.644;2023-09-12T19:03:48;10.67;;;7.13;;
76846;SDS011;65813;49.546;8.644;2023-09-12T19:07:48;12.60;;;7.13;;
76846;SDS011;65813;49.546;8.644;2023-09-12T19:11:48;11.25;;;6.40;;
76846;SDS011;65813;49.546;8.644;2023-09-12T19:15:49;8.93;;;7.00;;
76846;SDS011;65813;49.546;8.644;2023-09-12T19:19:49;13.53;;;7.80;;
76846;SDS011;65813;49.546;8.644;2023-09-12T19:23:50;14.00;;;7.60;;
76846;SDS011;65813;49.546;8.644;2023-09-12T19:27:50;10.60;;;7.10;;
76846;SDS011;65813;49.546;8.644;2023-09-12T19:31:50;11.03;;;7.60;;
76846;SDS011;65813;49.546;8.644;2023-09-12T19:35:51;13.03;;;7.90;;
76846;SDS011;65813;49.546;8.644;2023-09-12T19:39:51;12.33;;;6.50;;
76846;SDS011;65813;49.546;8.644;2023-09-12T19:43:51;11.88;;;7.15;;
76846;SDS011;65813;49.546;8.644;2023-09-12T19:47:52;10.30;;;7.37;;
76846;SDS011;65813;49.546;8.644;2023-09-12T19:51:52;10.03;;;7.37;;
76846;SDS011;65813;49.546;8.644;2023-09-12T19:55:53;9.33;;;6.60;;
76846;SDS011;65813;49.546;8.644;2023-09-12T19:59:54;10.38;;;6.47;;
76846;SDS011;65813;49.546;8.644;2023-09-12T20:03:54;8.27;;;5.80;;
76846;SDS011;65813;49.546;8.644;2023-09-12T20:07:55;9.55;;;5.78;;
76846;SDS011;65813;49.546;8.644;2023-09-12T20:11:55;9.37;;;6.23;;
76846;SDS011;65813;49.546;8.644;2023-09-12T20:15:57;9.40;;;5.97;;
76846;SDS011;65813;49.546;8.644;2023-09-12T20:19:57;8.37;;;6.20;;
76846;SDS011;65813;49.546;8.644;2023-09-12T20:23:57;8.87;;;6.20;;
76846;SDS011;65813;49.546;8.644;2023-09-12T20:27:58;9.13;;;6.27;;
76846;SDS011;65813;49.546;8.644;2023-09-12T20:31:58;10.02;;;6.07;;
76846;SDS011;65813;49.546;8.644;2023-09-12T20:35:59;8.82;;;6.00;;
76846;SDS011;65813;49.546;8.644;2023-09-12T20:40:00;10.20;;;6.60;;
76846;SDS011;65813;49.546;8.644;2023-09-12T20:44:00;9.30;;;5.87;;
76846;SDS011;65813;49.546;8.644;2023-09-12T20:48:01;8.90;;;5.90;;
76846;SDS011;65813;49.546;8.644;2023-09-12T20:52:01;9.57;;;5.67;;
76846;SDS011;65813;49.546;8.644;2023-09-12T20:56:02;9.20;;;5.75;;
76846;SDS011;65813;49.546;8.644;2023-09-12T21:00:03;9.20;;;5.28;;
76846;SDS011;65813;49.546;8.644;2023-09-12T21:04:04;9.32;;;5.60;;
76846;SDS011;65813;49.546;8.644;2023-09-12T21:08:04;8.23;;;5.40;;
76846;SDS011;65813;49.546;8.644;2023-09-12T21:12:05;9.18;;;5.03;;
76846;SDS011;65813;49.546;8.644;2023-09-12T22:31:11;10.15;;;5.85;;
76846;SDS011;65813;49.546;8.644;2023-09-12T22:35:13;11.27;;;5.90;;
76846;SDS011;65813;49.546;8.644;2023-09-12T22:39:13;7.97;;;5.83;;
76846;SDS011;65813;49.546;8.644;2023-09-12T22:43:14;9.40;;;5.90;;
